Time;durP1;ratioP1;P1;durP2;ratioP2;P2;SDS_P1;SDS_P2;PMS_P1;PMS_P2;Temp;Humidity;BMP_temperature;BMP_pressure;BME280_temperature;BME280_humidity;BME280_pressure;Samples;Min_cycle;Max_cycle;Signal;HPM_P1;HPM_P2
2023/04/08 00:01:18;;;;;;;15.90;10.50;;;;;;;10.11;100.00;102137.72;5240485;28;20029;-69
2023/04/08 00:03:50;;;;;;;18.67;10.32;;;;;;;10.12;100.00;102147.28;5239046;28;20126;-68
2023/04/08 00:06:21;;;;;;;18.58;10.85;;;;;;;10.18;100.00;102139.88;5238443;28;20036;-68
2023/04/08 00:08:52;;;;;;;15.57;10.35;;;;;;;10.15;100.00;102142.69;5239436;28;20043;-68
2023/04/08 00:11:23;;;;;;;16.00;10.55;;;;;;;10.17;100.00;102159.16;5242850;28;20021;-69
2023/04/08 00:13:55;;;;;;;14.32;9.90;;;;;;;10.16;100.00;102138.31;5242856;28;20556;-69
2023/04/08 00:16:27;;;;;;;18.52;11.30;;;;;;;10.11;100.00;102137.72;5246229;28;20029;-68
2023/04/08 00:18:58;;;;;;;19.02;11.73;;;;;;;10.15;100.00;102152.31;5240301;28;20060;-69
2023/04/08 00:21:30;;;;;;;17.98;11.45;;;;;;;10.14;100.00;102141.00;5240109;28;20028;-68
2023/04/08 00:24:01;;;;;;;16.30;10.63;;;;;;;10.18;100.00;102146.88;5237487;28;20123;-69
2023/04/08 00:26:33;;;;;;;18.77;11.55;;;;;;;10.19;100.00;102144.19;5247664;28;20044;-69
2023/04/08 00:29:04;;;;;;;18.90;11.38;;;;;;;10.15;100.00;102144.44;5245061;28;20107;-69
2023/04/08 00:31:35;;;;;;;17.20;12.15;;;;;;;10.19;100.00;102148.56;5242361;28;20160;-68
2023/04/08 00:34:06;;;;;;;18.83;12.23;;;;;;;10.25;100.00;102140.34;5241141;28;20029;-68
2023/04/08 00:36:38;;;;;;;20.38;13.02;;;;;;;10.26;100.00;102146.44;5240223;28;20033;-69
2023/04/08 00:39:10;;;;;;;22.48;13.68;;;;;;;10.19;100.00;102143.31;5240180;28;20478;-69
2023/04/08 00:41:42;;;;;;;19.35;12.90;;;;;;;10.22;100.00;102145.75;5242123;28;20139;-69
2023/04/08 00:44:13;;;;;;;25.98;14.68;;;;;;;10.25;100.00;102145.59;5243650;28;20033;-69
2023/04/08 00:46:45;;;;;;;19.58;13.98;;;;;;;10.17;100.00;102151.28;5242868;28;20129;-67
2023/04/08 00:49:16;;;;;;;22.80;13.85;;;;;;;10.15;100.00;102155.78;5242811;28;20021;-70
2023/04/08 00:51:47;;;;;;;21.95;13.82;;;;;;;10.14;100.00;102155.88;5240174;28;20033;-69
2023/04/08 00:54:19;;;;;;;20.75;14.90;;;;;;;10.18;100.00;102165.22;5244967;28;20112;-69
2023/04/08 00:56:50;;;;;;;24.95;16.02;;;;;;;10.19;100.00;102153.78;5241667;28;20095;-68
2023/04/08 00:59:22;;;;;;;26.02;15.32;;;;;;;10.20;100.00;102160.75;5243481;28;20098;-69
2023/04/08 01:02:05;;;;;;;24.45;15.95;;;;;;;10.46;100.00;102154.75;5242401;28;20037;-69
2023/04/08 01:04:43;;;;;;;;;;;;;;;10.98;100.00;102152.31;5239155;28;20041;-69
2023/04/08 01:07:19;;;;;;;24.02;16.27;;;;;;;10.38;100.00;102159.63;5241724;28;20489;-69
2023/04/08 01:09:56;;;;;;;26.25;17.55;;;;;;;10.40;100.00;102160.34;5238764;28;20032;-68
2023/04/08 01:12:30;;;;;;;27.65;16.65;;;;;;;10.28;100.00;102153.28;5239983;28;20024;-68
2023/04/08 01:15:07;;;;;;;22.52;16.73;;;;;;;10.39;100.00;102157.84;5239988;28;20037;-68
2023/04/08 01:17:40;;;;;;;30.10;16.85;;;;;;;10.31;100.00;102162.72;5240114;28;20020;-68
2023/04/08 01:20:14;;;;;;;32.92;18.10;;;;;;;10.27;100.00;102156.84;5240219;28;20030;-68
2023/04/08 01:23:02;;;;;;;27.35;17.75;;;;;;;10.42;100.00;102160.28;5241701;28;20330;-69
2023/04/08 01:25:35;;;;;;;27.30;17.98;;;;;;;10.15;100.00;102165.41;5242888;28;20039;-68
2023/04/08 01:28:11;;;;;;;29.92;17.85;;;;;;;10.23;100.00;102165.78;5243523;28;20695;-69
2023/04/08 01:30:45;;;;;;;25.55;18.38;;;;;;;10.24;100.00;102168.31;5246332;28;20397;-68
2023/04/08 01:33:18;;;;;;;27.60;17.70;;;;;;;10.22;100.00;102172.78;5236797;28;20025;-68
2023/04/08 01:35:50;;;;;;;;;;;;;;;10.95;100.00;102169.09;5246915;28;20093;-68
2023/04/08 01:38:25;;;;;;;26.08;17.52;;;;;;;10.38;100.00;102167.47;5245965;28;19993;-68
2023/04/08 01:40:56;;;;;;;32.78;19.45;;;;;;;10.30;100.00;102167.09;5242457;28;20033;-68
2023/04/08 01:43:28;;;;;;;31.13;19.35;;;;;;;10.20;100.00;102161.56;5246180;28;20035;-68
2023/04/08 01:46:00;;;;;;;28.05;18.10;;;;;;;10.21;100.00;102170.28;5246516;28;20032;-69
2023/04/08 01:48:32;;;;;;;34.60;20.60;;;;;;;10.23;100.00;102158.78;5247311;28;20091;-68
2023/04/08 01:51:05;;;;;;;29.67;20.45;;;;;;;10.13;100.00;102160.28;5245570;28;20453;-69
2023/04/08 01:53:36;;;;;;;36.63;21.40;;;;;;;10.18;100.00;102165.22;5244127;28;20033;-69
2023/04/08 01:56:11;;;;;;;31.50;20.85;;;;;;;10.32;100.00;102174.88;5243195;28;20025;-68
2023/04/08 01:58:49;;;;;;;30.52;21.15;;;;;;;10.35;100.00;102167.66;5245275;28;20033;-69
2023/04/08 02:01:25;;;;;;;29.73;19.10;;;;;;;10.37;100.00;102178.03;5242336;28;20083;-69
2023/04/08 02:03:58;;;;;;;27.88;19.80;;;;;;;10.28;100.00;102171.59;5247695;28;20095;-68
2023/04/08 02:06:30;;;;;;;28.40;20.45;;;;;;;10.32;100.00;102167.03;5242417;28;20460;-69
2023/04/08 02:09:03;;;;;;;36.65;21.02;;;;;;;10.32;100.00;102167.84;5243636;28;20057;-69
2023/04/08 02:11:34;;;;;;;28.83;20.52;;;;;;;10.32;100.00;102169.63;5243225;28;20032;-67
2023/04/08 02:14:05;;;;;;;29.45;19.60;;;;;;;10.26;100.00;102172.63;5245751;28;20033;-68
2023/04/08 02:16:48;;;;;;;32.40;21.52;;;;;;;10.40;100.00;102164.75;5244991;28;20407;-68
2023/04/08 02:19:35;;;;;;;32.92;22.15;;;;;;;10.52;100.00;102168.38;5247676;28;20591;-68
2023/04/08 02:22:16;;;;;;;36.13;21.95;;;;;;;10.42;100.00;102170.75;5242975;28;20310;-68
2023/04/08 02:24:48;;;;;;;36.15;22.20;;;;;;;10.26;100.00;102175.25;5243685;28;20040;-69
2023/04/08 02:27:20;;;;;;;30.23;22.08;;;;;;;10.26;100.00;102168.22;5242210;28;20437;-68
2023/04/08 02:29:54;;;;;;;39.08;23.58;;;;;;;10.32;100.00;102173.09;5244061;28;20033;-68
2023/04/08 02:32:29;;;;;;;32.88;23.25;;;;;;;10.26;100.00;102183.09;5246098;28;20039;-68
2023/04/08 02:35:02;;;;;;;33.50;23.38;;;;;;;10.17;100.00;102179.25;5246559;28;20029;-68
2023/04/08 02:37:34;;;;;;;34.10;23.75;;;;;;;10.15;100.00;102175.88;5246298;28;20025;-68
2023/04/08 02:40:31;;;;;;;34.97;24.02;;;;;;;10.40;100.00;102176.06;5242100;28;20063;-68
2023/04/08 02:43:02;;;;;;;30.17;22.67;;;;;;;10.13;100.00;102183.00;5243624;28;20029;-68
2023/04/08 02:45:39;;;;;;;36.75;24.35;;;;;;;10.26;100.00;102189.19;5241948;28;20048;-68
2023/04/08 02:48:11;;;;;;;35.78;24.38;;;;;;;10.07;100.00;102181.59;5243116;28;20025;-68
2023/04/08 02:50:42;;;;;;;37.72;24.50;;;;;;;10.13;100.00;102183.00;5242185;28;20025;-68
2023/04/08 02:53:13;;;;;;;34.92;25.52;;;;;;;10.13;100.00;102196.09;5247160;28;20033;-68
2023/04/08 02:55:44;;;;;;;31.88;24.63;;;;;;;10.12;100.00;102186.56;5242458;28;20393;-69
2023/04/08 02:58:16;;;;;;;31.55;24.88;;;;;;;10.17;100.00;102194.97;5246149;28;20039;-68
2023/04/08 03:00:47;;;;;;;41.47;24.23;;;;;;;10.17;100.00;102189.72;5243640;28;20040;-67
2023/04/08 03:03:19;;;;;;;35.55;24.10;;;;;;;10.14;100.00;102189.91;5243795;28;20271;-68
2023/04/08 03:05:50;;;;;;;35.25;24.05;;;;;;;10.19;100.00;102191.34;5244367;28;20024;-68
2023/04/08 03:08:22;;;;;;;31.10;24.17;;;;;;;10.23;100.00;102187.59;5243913;28;20518;-68
2023/04/08 03:10:53;;;;;;;35.53;25.30;;;;;;;10.22;100.00;102193.72;5243759;28;20495;-68
2023/04/08 03:13:25;;;;;;;38.47;25.95;;;;;;;10.19;100.00;102187.84;5246346;28;20021;-68
2023/04/08 03:15:56;;;;;;;37.85;25.98;;;;;;;10.16;100.00;102194.13;5245259;28;20080;-68
2023/04/08 03:18:27;;;;;;;38.17;26.00;;;;;;;10.16;100.00;102201.16;5245516;28;20047;-68
2023/04/08 03:21:00;;;;;;;41.20;27.15;;;;;;;10.19;100.00;102193.09;5245610;28;20025;-68
2023/04/08 03:23:31;;;;;;;34.87;25.87;;;;;;;10.36;100.00;102195.53;5246576;28;20421;-68
2023/04/08 03:26:02;;;;;;;38.33;26.38;;;;;;;10.27;100.00;102193.50;5239802;28;20302;-68
2023/04/08 03:28:34;;;;;;;36.53;24.98;;;;;;;10.26;100.00;102197.03;5245561;28;20144;-68
2023/04/08 03:31:05;;;;;;;33.75;23.80;;;;;;;10.22;100.00;102196.34;5245718;28;20017;-68
2023/04/08 03:33:36;;;;;;;31.45;22.67;;;;;;;10.20;100.00;102197.41;5241561;28;20044;-68
2023/04/08 03:36:08;;;;;;;30.83;24.13;;;;;;;10.20;100.00;102202.66;5241136;28;20040;-68
2023/04/08 03:38:40;;;;;;;36.05;24.42;;;;;;;10.21;100.00;102196.47;5247077;28;20029;-69
2023/04/08 03:41:11;;;;;;;37.28;24.27;;;;;;;10.23;100.00;102197.22;5244475;28;20286;-68
2023/04/08 03:43:42;;;;;;;30.98;23.67;;;;;;;10.26;100.00;102194.41;5242894;28;20068;-68
2023/04/08 03:46:14;;;;;;;33.72;23.70;;;;;;;10.24;100.00;102191.88;5245597;28;20061;-69
2023/04/08 03:48:45;;;;;;;31.33;23.00;;;;;;;10.24;100.00;102196.28;5243587;28;20035;-69
2023/04/08 03:51:16;;;;;;;33.05;23.08;;;;;;;10.26;100.00;102199.66;5240742;28;20708;-69
2023/04/08 03:53:48;;;;;;;36.25;24.48;;;;;;;10.24;100.00;102193.66;5245329;28;20387;-69
2023/04/08 03:56:19;;;;;;;35.55;24.73;;;;;;;10.22;100.00;102200.75;5242303;28;20025;-69
2023/04/08 03:58:50;;;;;;;37.03;24.63;;;;;;;10.21;100.00;102212.19;5244975;28;20035;-69
2023/04/08 04:01:22;;;;;;;37.47;25.42;;;;;;;10.24;100.00;102206.75;5241892;28;20029;-69
2023/04/08 04:03:53;;;;;;;35.85;25.38;;;;;;;10.22;100.00;102198.97;5246659;28;20050;-69
2023/04/08 04:06:25;;;;;;;33.70;24.98;;;;;;;10.24;100.00;102201.53;5244371;28;20042;-69
2023/04/08 04:08:56;;;;;;;37.50;26.35;;;;;;;10.27;100.00;102201.38;5237071;28;20660;-69
2023/04/08 04:11:28;;;;;;;41.58;26.98;;;;;;;10.27;100.00;102196.13;5244243;28;20481;-68
2023/04/08 04:13:59;;;;;;;43.78;27.40;;;;;;;10.28;100.00;102203.03;5244517;28;20033;-69
2023/04/08 04:16:30;;;;;;;41.42;26.08;;;;;;;10.31;100.00;102199.41;5234605;28;20037;-69
2023/04/08 04:19:01;;;;;;;47.08;27.38;;;;;;;10.27;100.00;102203.16;5244020;28;20065;-69
2023/04/08 04:21:33;;;;;;;44.70;26.88;;;;;;;10.25;100.00;102208.47;5247127;28;20037;-69
2023/04/08 04:24:04;;;;;;;42.63;27.00;;;;;;;10.24;100.00;102215.44;5242606;28;20033;-69
2023/04/08 04:26:35;;;;;;;49.13;27.67;;;;;;;10.26;100.00;102214.53;5244716;28;20299;-69
2023/04/08 04:29:07;;;;;;;46.05;28.00;;;;;;;10.32;100.00;102217.63;5244889;28;20030;-69
2023/04/08 04:31:38;;;;;;;45.17;27.67;;;;;;;10.27;100.00;102219.69;5244774;28;20028;-69
2023/04/08 04:34:09;;;;;;;42.75;28.50;;;;;;;10.31;100.00;102229.06;5244872;28;20414;-69
2023/04/08 04:36:40;;;;;;;48.35;27.95;;;;;;;10.39;100.00;102223.34;5243175;28;20029;-69
2023/04/08 04:39:12;;;;;;;52.50;30.27;;;;;;;10.36;100.00;102228.75;5242310;28;20028;-69
2023/04/08 04:41:43;;;;;;;54.45;31.17;;;;;;;10.28;100.00;102234.47;5239957;28;20041;-69
2023/04/08 04:44:14;;;;;;;53.25;29.73;;;;;;;10.30;100.00;102235.19;5239304;28;20095;-69
2023/04/08 04:46:46;;;;;;;49.25;30.13;;;;;;;10.18;100.00;102222.84;5242654;28;20037;-69
2023/04/08 04:49:17;;;;;;;54.30;32.45;;;;;;;10.29;100.00;102240.53;5242370;28;20078;-69
2023/04/08 04:51:48;;;;;;;50.78;29.80;;;;;;;10.29;100.00;102235.31;5240862;28;20017;-69
2023/04/08 04:54:20;;;;;;;54.25;31.42;;;;;;;10.32;100.00;102241.19;5245103;28;20330;-69
2023/04/08 04:56:51;;;;;;;48.55;29.17;;;;;;;10.33;100.00;102242.03;5243097;28;20029;-69
2023/04/08 04:59:22;;;;;;;52.38;31.60;;;;;;;10.33;100.00;102244.66;5242598;28;20162;-69
2023/04/08 05:01:56;;;;;;;51.25;31.30;;;;;;;10.31;100.00;102247.38;5241023;28;20498;-69
2023/04/08 05:04:27;;;;;;;53.88;30.95;;;;;;;10.27;100.00;102252.91;5240286;28;20206;-68
2023/04/08 05:06:59;;;;;;;55.97;31.35;;;;;;;10.31;100.00;102246.56;5242995;28;20104;-69
2023/04/08 05:09:30;;;;;;;50.60;29.80;;;;;;;10.34;100.00;102259.44;5240055;28;20037;-69
2023/04/08 05:12:02;;;;;;;44.72;29.27;;;;;;;10.38;100.00;102256.56;5242257;28;20029;-67
2023/04/08 05:14:33;;;;;;;43.03;28.55;;;;;;;10.28;100.00;102244.94;5242874;28;20044;-69
2023/04/08 05:17:05;;;;;;;41.70;27.65;;;;;;;10.27;100.00;102260.78;5241019;28;20048;-69
2023/04/08 05:19:36;;;;;;;38.30;28.23;;;;;;;10.32;100.00;102262.16;5241815;28;20401;-69
2023/04/08 05:22:07;;;;;;;40.35;26.95;;;;;;;10.39;100.00;102258.22;5240706;28;20041;-69
2023/04/08 05:24:39;;;;;;;40.33;27.17;;;;;;;10.11;100.00;102268.66;5242448;28;20098;-69
2023/04/08 05:27:10;;;;;;;36.40;25.73;;;;;;;10.20;100.00;102262.88;5243247;28;20025;-69
2023/04/08 05:29:41;;;;;;;39.25;25.58;;;;;;;10.05;100.00;102256.78;5244953;28;20784;-69
2023/04/08 05:32:13;;;;;;;38.17;24.85;;;;;;;10.06;100.00;102268.09;5240601;28;20029;-68
2023/04/08 05:34:44;;;;;;;36.20;25.70;;;;;;;10.11;100.00;102274.72;5238693;28;20083;-68
2023/04/08 05:37:15;;;;;;;32.05;23.67;;;;;;;10.12;100.00;102270.38;5239157;28;20025;-69
2023/04/08 05:39:47;;;;;;;30.58;23.38;;;;;;;10.08;100.00;102263.63;5240654;28;20381;-69
2023/04/08 05:42:18;;;;;;;35.42;23.67;;;;;;;10.18;100.00;102272.59;5239397;28;20442;-69
2023/04/08 05:44:49;;;;;;;31.77;23.88;;;;;;;10.05;100.00;102262.03;5241260;28;20029;-69
2023/04/08 05:47:20;;;;;;;31.70;23.02;;;;;;;10.13;100.00;102280.72;5237753;28;20110;-69
2023/04/08 05:49:52;;;;;;;33.83;24.15;;;;;;;10.17;100.00;102282.22;5239427;28;20025;-69
2023/04/08 05:52:23;;;;;;;31.52;22.17;;;;;;;10.22;100.00;102276.72;5240420;28;20030;-68
2023/04/08 05:54:54;;;;;;;30.77;22.73;;;;;;;10.24;100.00;102282.72;5242497;28;20025;-68
2023/04/08 05:57:26;;;;;;;29.95;22.67;;;;;;;10.17;100.00;102276.16;5241932;28;20017;-68
2023/04/08 05:59:57;;;;;;;29.30;23.80;;;;;;;10.31;100.00;102285.84;5239106;28;20037;-68
2023/04/08 06:02:28;;;;;;;32.53;25.02;;;;;;;10.30;100.00;102284.97;5236874;28;20025;-69
2023/04/08 06:04:59;;;;;;;33.67;24.40;;;;;;;10.18;100.00;102290.94;5233186;28;20124;-69
2023/04/08 06:07:32;;;;;;;33.13;23.55;;;;;;;10.17;100.00;102297.94;5240316;28;20033;-69
2023/04/08 06:10:04;;;;;;;26.65;19.65;;;;;;;10.08;100.00;102300.28;5240336;28;20026;-69
2023/04/08 06:12:39;;;;;;;23.50;18.85;;;;;;;10.15;100.00;102297.22;5240271;28;20025;-68
2023/04/08 06:15:10;;;;;;;24.63;19.40;;;;;;;10.15;100.00;102298.97;5239768;28;20454;-69
2023/04/08 06:17:42;;;;;;;28.42;20.90;;;;;;;10.21;100.00;102309.91;5238812;28;20120;-69
2023/04/08 06:20:13;;;;;;;30.15;22.40;;;;;;;10.22;100.00;102302.91;5240890;28;20036;-69
2023/04/08 06:22:44;;;;;;;36.45;24.10;;;;;;;10.22;100.00;102311.59;5243366;28;20051;-69
2023/04/08 06:25:15;;;;;;;30.75;24.42;;;;;;;10.28;100.00;102310.44;5245195;28;20016;-69
2023/04/08 06:27:47;;;;;;;30.45;22.25;;;;;;;10.33;100.00;102311.00;5241898;28;20032;-68
2023/04/08 06:30:18;;;;;;;28.88;24.02;;;;;;;10.36;100.00;102321.28;5239994;28;20025;-68
2023/04/08 06:32:49;;;;;;;30.05;23.98;;;;;;;10.33;100.00;102326.72;5242026;28;20024;-69
2023/04/08 06:35:21;;;;;;;29.08;22.27;;;;;;;10.38;100.00;102318.56;5241089;28;20536;-69
2023/04/08 06:37:52;;;;;;;33.85;23.83;;;;;;;10.45;100.00;102328.59;5242195;28;20483;-68
2023/04/08 06:40:23;;;;;;;27.67;22.08;;;;;;;10.47;100.00;102331.97;5239456;28;20100;-69
2023/04/08 06:42:55;;;;;;;29.45;22.50;;;;;;;10.52;100.00;102321.19;5242652;28;20029;-70
2023/04/08 06:45:26;;;;;;;25.88;22.50;;;;;;;10.48;100.00;102327.56;5240165;28;20075;-69
2023/04/08 06:47:58;;;;;;;24.63;20.83;;;;;;;10.61;100.00;102333.75;5240550;28;20035;-69
2023/04/08 06:50:30;;;;;;;26.25;21.08;;;;;;;10.64;100.00;102341.41;5240609;28;20104;-69
2023/04/08 06:53:01;;;;;;;24.63;19.77;;;;;;;10.68;100.00;102329.81;5240527;28;20466;-69
2023/04/08 06:55:32;;;;;;;22.05;18.90;;;;;;;10.68;100.00;102344.69;5242261;28;20036;-69
2023/04/08 06:58:04;;;;;;;20.48;16.92;;;;;;;10.67;100.00;102335.97;5244779;28;20083;-69
2023/04/08 07:00:35;;;;;;;20.27;17.27;;;;;;;10.68;100.00;102342.06;5239538;28;20023;-69
2023/04/08 07:03:07;;;;;;;20.83;17.88;;;;;;;10.79;100.00;102350.09;5246153;28;20048;-69
2023/04/08 07:05:38;;;;;;;19.63;17.17;;;;;;;10.73;100.00;102355.75;5242917;28;20381;-69
2023/04/08 07:08:10;;;;;;;22.50;18.33;;;;;;;10.62;100.00;102342.47;5242375;28;20091;-69
2023/04/08 07:10:41;;;;;;;20.38;16.67;;;;;;;10.74;100.00;102357.44;5247446;28;20031;-69
2023/04/08 07:13:12;;;;;;;21.92;17.65;;;;;;;10.81;100.00;102366.59;5246655;28;20111;-69
2023/04/08 07:15:44;;;;;;;22.70;17.85;;;;;;;10.82;100.00;102360.41;5243112;28;20441;-69
2023/04/08 07:18:15;;;;;;;20.85;17.65;;;;;;;10.86;100.00;102364.53;5237560;28;20067;-70
2023/04/08 07:20:53;;;;;;;19.85;16.65;;;;;;;11.01;100.00;102369.78;5243179;28;20321;-69
2023/04/08 07:23:24;;;;;;;21.98;18.48;;;;;;;10.87;100.00;102371.47;5241894;28;20060;-70
2023/04/08 07:26:01;;;;;;;20.75;17.67;;;;;;;11.13;100.00;102375.06;5246710;28;20113;-69
2023/04/08 07:28:32;;;;;;;19.38;16.95;;;;;;;10.97;100.00;102384.84;5243375;28;20049;-69
2023/04/08 07:31:12;;;;;;;20.08;16.88;;;;;;;11.14;100.00;102383.81;5242756;28;21961;-70
2023/04/08 07:33:44;;;;;;;19.40;17.20;;;;;;;10.99;100.00;102385.63;5245242;28;20115;-69
2023/04/08 07:36:17;;;;;;;21.38;17.38;;;;;;;11.01;100.00;102390.75;5245692;28;20566;-70
2023/04/08 07:38:48;;;;;;;23.08;18.40;;;;;;;10.94;100.00;102385.03;5240617;28;20036;-70
2023/04/08 07:41:20;;;;;;;22.70;18.33;;;;;;;11.09;100.00;102388.50;5245861;28;20394;-69
2023/04/08 07:43:51;;;;;;;19.42;17.33;;;;;;;11.00;100.00;102392.53;5245068;28;20078;-69
2023/04/08 07:46:23;;;;;;;19.10;16.97;;;;;;;11.11;100.00;102389.25;5239361;28;20051;-70
2023/04/08 07:48:55;;;;;;;18.63;16.08;;;;;;;11.20;100.00;102391.28;5244677;28;20474;-69
2023/04/08 07:51:26;;;;;;;20.17;17.60;;;;;;;11.22;100.00;102393.81;5242596;28;20052;-69
2023/04/08 07:53:58;;;;;;;18.52;16.50;;;;;;;11.21;100.00;102382.47;5242061;28;20418;-70
2023/04/08 07:56:30;;;;;;;19.92;17.30;;;;;;;11.19;100.00;102387.81;5243009;28;20052;-70
2023/04/08 07:59:01;;;;;;;18.55;16.55;;;;;;;11.22;100.00;102396.44;5238231;28;20120;-70
2023/04/08 08:01:34;;;;;;;18.10;16.08;;;;;;;11.25;100.00;102404.97;5233506;28;20037;-70
2023/04/08 08:04:05;;;;;;;17.88;15.93;;;;;;;11.32;100.00;102406.25;5238753;28;20381;-69
2023/04/08 08:06:37;;;;;;;18.42;15.77;;;;;;;11.29;100.00;102414.34;5242727;28;20033;-69
2023/04/08 08:09:08;;;;;;;17.98;16.08;;;;;;;11.26;100.00;102425.00;5235464;28;20059;-70
2023/04/08 08:11:39;;;;;;;19.08;17.10;;;;;;;11.33;100.00;102423.69;5245581;28;20112;-70
2023/04/08 08:14:12;;;;;;;20.25;17.85;;;;;;;11.41;100.00;102410.94;5238448;28;20040;-69
2023/04/08 08:16:44;;;;;;;21.10;16.98;;;;;;;11.35;100.00;102424.44;5247374;28;20028;-70
2023/04/08 08:19:15;;;;;;;18.63;16.65;;;;;;;11.47;100.00;102428.06;5244752;28;20079;-70
2023/04/08 08:21:47;;;;;;;20.20;17.73;;;;;;;11.41;100.00;102424.06;5245020;28;20540;-70
2023/04/08 08:24:18;;;;;;;19.80;17.70;;;;;;;11.34;100.00;102430.63;5242163;28;20033;-69
2023/04/08 08:26:49;;;;;;;20.75;18.25;;;;;;;11.31;100.00;102424.72;5239827;28;20064;-70
2023/04/08 08:29:21;;;;;;;20.35;18.17;;;;;;;11.42;100.00;102433.59;5240909;28;20031;-70
2023/04/08 08:31:52;;;;;;;19.23;16.98;;;;;;;11.50;100.00;102429.66;5241783;28;20337;-70
2023/04/08 08:34:23;;;;;;;18.83;16.55;;;;;;;11.44;100.00;102437.00;5246636;28;20025;-70
2023/04/08 08:36:55;;;;;;;20.48;18.15;;;;;;;11.40;100.00;102435.50;5239793;28;20021;-70
2023/04/08 08:39:27;;;;;;;20.08;17.98;;;;;;;11.34;100.00;102440.28;5245641;28;20386;-70
2023/04/08 08:41:58;;;;;;;23.88;19.08;;;;;;;11.40;100.00;102440.75;5248737;28;20021;-70
2023/04/08 08:44:29;;;;;;;20.50;18.30;;;;;;;11.53;100.00;102443.44;5247682;28;20024;-70
2023/04/08 08:47:01;;;;;;;19.50;17.25;;;;;;;11.58;100.00;102443.97;5242958;28;20107;-70
2023/04/08 08:49:32;;;;;;;19.10;16.90;;;;;;;11.56;100.00;102450.28;5242809;28;20416;-70
2023/04/08 08:52:05;;;;;;;18.70;16.38;;;;;;;11.49;100.00;102447.19;5238118;28;20110;-70
2023/04/08 08:54:37;;;;;;;;;;;;;;;12.36;100.00;102451.22;5234442;28;20116;-70
2023/04/08 08:57:18;;;;;;;18.70;16.35;;;;;;;12.17;100.00;102441.94;5241457;28;20537;-70
2023/04/08 08:59:49;;;;;;;20.50;17.60;;;;;;;11.93;100.00;102451.41;5242148;28;20025;-70
2023/04/08 09:02:30;;;;;;;19.73;17.65;;;;;;;12.11;100.00;102449.34;5239622;28;20508;-70
2023/04/08 09:05:03;;;;;;;20.30;17.70;;;;;;;11.97;100.00;102447.66;5251817;28;20033;-70
2023/04/08 09:07:35;;;;;;;20.15;17.40;;;;;;;12.10;100.00;102451.16;5234389;28;20052;-70
2023/04/08 09:10:07;;;;;;;23.13;19.30;;;;;;;12.12;100.00;102453.66;5239347;28;20026;-70
2023/04/08 09:13:05;;;;;;;21.65;19.33;;;;;;;12.51;100.00;102459.88;5237790;28;20033;-70
2023/04/08 09:16:00;;;;;;;23.30;20.33;;;;;;;12.34;100.00;102474.94;5237141;28;20045;-70
2023/04/08 09:18:32;;;;;;;24.35;21.05;;;;;;;12.22;100.00;102461.78;5230959;28;20025;-69
2023/04/08 09:21:05;;;;;;;24.80;21.50;;;;;;;12.17;100.00;102472.63;5216943;28;20037;-70
2023/04/08 09:23:44;;;;;;;;;;;;;;;12.91;100.00;102469.34;5223687;28;20040;-70
2023/04/08 09:26:23;;;;;;;23.67;21.13;;;;;;;12.28;100.00;102469.28;5218631;28;20359;-70
2023/04/08 09:29:03;;;;;;;24.13;20.75;;;;;;;12.35;100.00;102475.78;5224464;28;20045;-70
2023/04/08 09:31:39;;;;;;;22.85;20.35;;;;;;;12.15;100.00;102477.94;5232519;28;20033;-69
2023/04/08 09:34:14;;;;;;;23.27;20.77;;;;;;;12.05;100.00;102481.31;5231018;28;20064;-70
2023/04/08 09:36:45;;;;;;;23.02;20.63;;;;;;;12.18;100.00;102479.53;5244119;28;20025;-70
2023/04/08 09:39:17;;;;;;;23.70;21.15;;;;;;;12.14;100.00;102483.31;5238022;28;20029;-70
2023/04/08 09:41:50;;;;;;;24.00;21.50;;;;;;;12.21;100.00;102478.50;5231148;28;20033;-70
2023/04/08 09:44:23;;;;;;;;;;;;;;;13.06;100.00;102482.38;5233229;28;20129;-70
2023/04/08 09:47:11;;;;;;;21.55;19.30;;;;;;;12.54;100.00;102478.91;5229787;28;19920;-70
2023/04/08 09:49:48;;;;;;;21.40;19.10;;;;;;;12.37;100.00;102477.38;5235320;28;21284;-70
2023/04/08 09:52:26;;;;;;;21.98;19.77;;;;;;;12.34;100.00;102484.63;5237057;28;20017;-70
2023/04/08 09:55:07;;;;;;;21.75;19.55;;;;;;;12.39;100.00;102491.28;5239894;28;20279;-69
2023/04/08 09:57:49;;;;;;;22.13;19.17;;;;;;;12.37;100.00;102492.31;5226920;28;20037;-70
2023/04/08 10:00:24;;;;;;;20.13;18.00;;;;;;;12.35;100.00;102491.56;5235205;28;20032;-70
2023/04/08 10:03:05;;;;;;;20.33;18.30;;;;;;;12.58;100.00;102492.69;5237644;28;20530;-69
2023/04/08 10:05:40;;;;;;;20.00;18.10;;;;;;;12.38;100.00;102492.19;5239141;28;20072;-70
2023/04/08 10:08:12;;;;;;;19.95;18.05;;;;;;;12.40;100.00;102490.31;5230519;28;20425;-69
2023/04/08 10:10:44;;;;;;;20.35;18.33;;;;;;;12.50;100.00;102489.69;5231318;28;20079;-70
2023/04/08 10:13:15;;;;;;;19.58;17.65;;;;;;;12.81;100.00;102489.34;5243665;28;20122;-70
2023/04/08 10:15:47;;;;;;;18.10;16.30;;;;;;;12.81;100.00;102496.41;5241170;28;20155;-69
2023/04/08 10:18:22;;;;;;;19.92;17.92;;;;;;;12.78;100.00;102486.91;5241663;28;20087;-69
2023/04/08 10:20:53;;;;;;;19.67;17.67;;;;;;;12.81;100.00;102499.03;5240808;28;20043;-70
2023/04/08 10:23:52;;;;;;;20.27;18.33;;;;;;;13.32;100.00;102493.75;5238424;28;20056;-70
2023/04/08 10:26:34;;;;;;;19.00;17.15;;;;;;;13.29;100.00;102496.59;5244592;28;20025;-69
2023/04/08 10:29:18;;;;;;;17.90;16.07;;;;;;;13.29;100.00;102493.97;5240096;28;20433;-70
2023/04/08 10:31:50;;;;;;;19.52;17.52;;;;;;;13.11;100.00;102491.66;5236467;28;20295;-70
2023/04/08 10:34:26;;;;;;;17.88;16.13;;;;;;;13.10;100.00;102494.38;5229132;28;20561;-68
2023/04/08 10:37:01;;;;;;;18.70;17.00;;;;;;;13.29;100.00;102488.72;5212929;28;21054;-69
2023/04/08 10:39:32;;;;;;;18.92;17.10;;;;;;;13.36;100.00;102480.28;5225634;28;20018;-69
2023/04/08 10:42:07;;;;;;;18.70;16.63;;;;;;;13.57;100.00;102479.72;5235420;28;20449;-70
2023/04/08 10:44:43;;;;;;;18.02;16.13;;;;;;;13.58;100.00;102482.22;5237223;28;20033;-70
2023/04/08 10:47:15;;;;;;;18.25;16.55;;;;;;;13.41;100.00;102487.00;5233438;28;20090;-71
2023/04/08 10:49:47;;;;;;;19.20;17.35;;;;;;;13.55;100.00;102484.25;5235785;28;20541;-70
2023/04/08 10:52:20;;;;;;;19.70;17.70;;;;;;;13.52;100.00;102481.81;5236057;28;20029;-70
2023/04/08 10:54:52;;;;;;;;;;;;;;;14.39;100.00;102474.59;5220188;28;20021;-70
2023/04/08 10:57:24;;;;;;;19.15;17.33;;;;;;;13.59;100.00;102478.63;5236881;28;20273;-69
2023/04/08 10:59:55;;;;;;;19.70;17.70;;;;;;;13.79;100.00;102468.50;5247669;28;20082;-70
2023/04/08 11:02:32;;;;;;;19.02;17.23;;;;;;;13.87;100.00;102463.50;5247128;28;20283;-69
2023/04/08 11:05:04;;;;;;;18.88;17.10;;;;;;;13.98;100.00;102474.09;5242330;28;20075;-70
2023/04/08 11:07:40;;;;;;;18.80;16.85;;;;;;;14.16;100.00;102465.75;5247724;28;20029;-70
2023/04/08 11:10:12;;;;;;;18.65;16.92;;;;;;;14.26;100.00;102462.34;5245937;28;20088;-70
2023/04/08 11:12:43;;;;;;;18.08;16.40;;;;;;;14.19;100.00;102463.75;5232780;28;21048;-70
2023/04/08 11:15:15;;;;;;;18.80;17.02;;;;;;;14.15;100.00;102466.72;5228746;28;20088;-70
2023/04/08 11:17:48;;;;;;;19.02;17.23;;;;;;;13.93;100.00;102457.75;5237520;28;20031;-71
2023/04/08 11:20:20;;;;;;;18.50;16.80;;;;;;;14.11;100.00;102461.69;5240546;28;20471;-70
2023/04/08 11:22:52;;;;;;;19.13;17.30;;;;;;;14.15;100.00;102457.03;5238096;28;20033;-70
2023/04/08 11:25:23;;;;;;;19.55;17.55;;;;;;;14.08;100.00;102459.25;5237486;28;20134;-71
2023/04/08 11:27:55;;;;;;;18.38;16.58;;;;;;;14.11;100.00;102452.94;5240404;28;20055;-71
2023/04/08 11:30:27;;;;;;;19.20;17.40;;;;;;;14.14;100.00;102450.06;5239525;28;20024;-70